Time;durP1;ratioP1;P1;durP2;ratioP2;P2;SDS_P1;SDS_P2;PMS_P1;PMS_P2;Temp;Humidity;BMP_temperature;BMP_pressure;BME280_temperature;BME280_humidity;BME280_pressure;Samples;Min_cycle;Max_cycle;Signal;HPM_P1;HPM_P2
2022/11/15 00:00:55;;;;;;;21.63;14.90;;;;;;;8.41;100.00;100090.25;5106152;28;20492;-72
2022/11/15 00:03:27;;;;;;;24.58;14.90;;;;;;;8.44;100.00;100100.69;5103600;27;20164;-71
2022/11/15 00:05:54;;;;;;;23.73;15.30;;;;;;;8.46;100.00;100101.47;5108067;28;20048;-72
2022/11/15 00:08:21;;;;;;;19.80;13.90;;;;;;;8.45;100.00;100107.69;5102785;28;20051;-72
2022/11/15 00:10:55;;;;;;;20.83;14.57;;;;;;;8.41;100.00;100098.16;5106462;28;20047;-71
2022/11/15 00:13:22;;;;;;;38.25;15.18;;;;;;;8.34;100.00;100102.00;5105693;28;20079;-71
2022/11/15 00:15:48;;;;;;;20.10;14.57;;;;;;;8.15;100.00;100075.50;5102591;28;20052;-71
2022/11/15 00:18:16;;;;;;;19.13;13.75;;;;;;;8.10;100.00;100066.94;5100127;28;20048;-72
2022/11/15 00:20:42;;;;;;;18.88;13.35;;;;;;;8.14;100.00;100086.13;5105820;28;20059;-70
2022/11/15 00:23:09;;;;;;;21.60;14.50;;;;;;;8.05;100.00;100072.38;5105764;28;20142;-73
2022/11/15 00:25:36;;;;;;;27.35;16.45;;;;;;;8.12;100.00;100087.97;5108185;28;20131;-72
2022/11/15 00:28:03;;;;;;;19.58;14.25;;;;;;;8.08;100.00;100087.22;5103996;28;20514;-71
2022/11/15 00:30:29;;;;;;;20.90;14.52;;;;;;;8.06;100.00;100089.06;5101763;28;20043;-72
2022/11/15 00:32:56;;;;;;;18.08;12.93;;;;;;;8.04;100.00;100085.63;5102028;28;20054;-72
2022/11/15 00:35:23;;;;;;;18.67;14.10;;;;;;;7.90;100.00;100066.88;5104590;28;20413;-72
2022/11/15 00:37:49;;;;;;;18.90;13.10;;;;;;;8.02;100.00;100080.44;5102192;28;20127;-71
2022/11/15 00:40:16;;;;;;;18.58;13.65;;;;;;;8.08;100.00;100082.81;5104209;28;20155;-71
2022/11/15 00:42:42;;;;;;;18.75;13.85;;;;;;;8.08;100.00;100082.81;5106779;28;20520;-73
2022/11/15 00:45:09;;;;;;;18.30;13.38;;;;;;;8.12;100.00;100082.69;5105074;28;20483;-72
2022/11/15 00:47:36;;;;;;;24.67;14.98;;;;;;;8.10;100.00;100077.47;5093440;28;20357;-71
2022/11/15 00:50:04;;;;;;;18.95;14.23;;;;;;;7.96;100.00;100056.09;5103767;28;20138;-71
2022/11/15 00:52:30;;;;;;;22.65;14.73;;;;;;;8.05;100.00;100076.81;5105270;28;20051;-71
2022/11/15 00:54:57;;;;;;;22.08;13.85;;;;;;;8.03;100.00;100065.47;5104261;28;20079;-72
2022/11/15 00:57:23;;;;;;;21.90;13.85;;;;;;;8.05;100.00;100067.13;5107458;28;20105;-71
2022/11/15 00:59:50;;;;;;;24.70;14.70;;;;;;;8.13;100.00;100065.94;5101637;28;20036;-70
2022/11/15 01:02:17;;;;;;;19.15;14.07;;;;;;;8.03;100.00;100044.34;5107667;28;20134;-71
2022/11/15 01:04:43;;;;;;;20.58;14.13;;;;;;;8.14;100.00;100073.78;5099888;28;20049;-72
2022/11/15 01:07:10;;;;;;;17.92;13.43;;;;;;;8.07;100.00;100048.59;5106575;28;20067;-70
2022/11/15 01:09:36;;;;;;;19.33;14.05;;;;;;;8.19;100.00;100052.47;5098826;28;20467;-72
2022/11/15 01:12:03;;;;;;;22.73;14.45;;;;;;;8.25;100.00;100060.16;5103217;28;20050;-71
2022/11/15 01:14:30;;;;;;;18.55;12.48;;;;;;;8.25;100.00;100062.78;5107563;28;20056;-71
2022/11/15 01:16:56;;;;;;;21.35;13.25;;;;;;;8.26;100.00;100068.00;5105242;28;20540;-69
2022/11/15 01:19:23;;;;;;;22.15;14.43;;;;;;;8.24;100.00;100061.06;5102210;28;20571;-71
2022/11/15 01:21:50;;;;;;;18.20;12.90;;;;;;;8.18;100.00;100054.28;5106637;28;20130;-69
2022/11/15 01:24:17;;;;;;;19.48;13.13;;;;;;;8.05;100.00;100037.25;5103121;28;20554;-72
2022/11/15 01:26:43;;;;;;;17.52;12.88;;;;;;;7.99;100.00;100030.47;5102786;28;20400;-69
2022/11/15 01:29:10;;;;;;;18.83;13.02;;;;;;;8.14;100.00;100059.75;5099682;28;20052;-70
2022/11/15 01:31:36;;;;;;;20.45;14.00;;;;;;;8.06;100.00;100055.66;5104784;28;20045;-69
2022/11/15 01:34:03;;;;;;;21.58;14.27;;;;;;;8.00;100.00;100050.66;5102399;28;20051;-72
2022/11/15 01:36:30;;;;;;;18.20;12.98;;;;;;;7.89;100.00;100028.25;5100116;28;20056;-71
2022/11/15 01:38:58;;;;;;;17.90;13.48;;;;;;;8.00;100.00;100053.28;5099399;28;20147;-70
2022/11/15 01:41:27;;;;;;;17.35;13.18;;;;;;;8.02;100.00;100055.84;5106180;28;20067;-70
2022/11/15 01:43:56;;;;;;;20.35;14.18;;;;;;;8.03;100.00;100052.28;5104874;28;20054;-72
2022/11/15 01:46:33;;;;;;;20.73;14.10;;;;;;;7.99;100.00;100046.28;5104739;28;20572;-72
2022/11/15 01:49:05;;;;;;;20.70;14.00;;;;;;;8.01;100.00;100049.72;5102568;28;20050;-71
2022/11/15 01:51:33;;;;;;;20.52;13.93;;;;;;;8.02;100.00;100037.41;5106457;28;20047;-71
2022/11/15 01:54:06;;;;;;;21.25;14.77;;;;;;;8.16;100.00;100042.09;5107212;28;20146;-70
2022/11/15 01:56:38;;;;;;;19.70;12.80;;;;;;;8.19;100.00;100036.66;5105182;28;20054;-72
2022/11/15 01:59:07;;;;;;;16.13;12.63;;;;;;;8.24;100.00;100039.97;5100140;28;20039;-72
2022/11/15 02:01:34;;;;;;;20.17;13.90;;;;;;;8.27;100.00;100032.78;5103989;28;20749;-69
2022/11/15 02:04:12;;;;;;;19.38;12.90;;;;;;;8.29;100.00;100023.03;5102458;28;20178;-71
2022/11/15 02:06:40;;;;;;;19.83;12.43;;;;;;;8.34;100.00;100030.78;5103565;28;20063;-71
2022/11/15 02:09:07;;;;;;;19.45;13.05;;;;;;;8.38;100.00;100024.41;5096874;28;20047;-70
2022/11/15 02:11:34;;;;;;;18.10;12.60;;;;;;;8.44;100.00;100032.94;5105651;28;20039;-71
2022/11/15 02:14:01;;;;;;;19.08;12.93;;;;;;;8.47;100.00;100012.63;5103448;28;20074;-71
2022/11/15 02:16:52;;;;;;;17.48;12.30;;;;;;;8.53;100.00;100021.09;5110095;28;20048;-70
2022/11/15 02:19:31;;;;;;;14.95;11.52;;;;;;;8.61;100.00;100008.44;5105063;28;20050;-71
2022/11/15 02:22:16;;;;;;;17.52;11.32;;;;;;;8.68;100.00;100001.94;5107887;27;20081;-71
2022/11/15 02:24:50;;;;;;;14.63;11.15;;;;;;;8.73;100.00;99999.97;5109493;28;20665;-71
2022/11/15 02:27:47;;;;;;;15.98;10.20;;;;;;;8.75;100.00;99989.34;5104310;28;20113;-72
2022/11/15 02:30:14;;;;;;;15.05;10.70;;;;;;;8.83;100.00;99988.97;5105727;28;20043;-70
2022/11/15 02:33:25;;;;;;;13.40;9.70;;;;;;;8.87;100.00;99991.41;5105758;28;20381;-68
2022/11/15 02:36:01;;;;;;;14.70;10.57;;;;;;;8.92;100.00;99985.91;5107617;28;20055;-71
2022/11/15 02:38:50;;;;;;;12.68;9.82;;;;;;;8.93;100.00;99977.06;5105334;28;20048;-71
2022/11/15 02:41:35;;;;;;;17.58;10.82;;;;;;;8.94;100.00;99981.41;5108344;28;20054;-70
2022/11/15 02:44:13;;;;;;;17.02;10.35;;;;;;;8.95;100.00;99983.13;5105165;28;21539;-70
2022/11/15 02:47:13;;;;;;;13.88;9.85;;;;;;;8.84;100.00;99951.94;5107910;28;20048;-71
2022/11/15 02:49:48;;;;;;;12.77;9.32;;;;;;;8.98;100.00;99969.75;5102656;28;20392;-72
2022/11/15 02:52:22;;;;;;;14.13;10.35;;;;;;;8.99;100.00;99976.75;5105049;28;20071;-70
2022/11/15 02:55:00;;;;;;;13.73;9.55;;;;;;;8.90;100.00;99966.63;5101312;28;20050;-71
2022/11/15 02:57:39;;;;;;;13.30;9.55;;;;;;;8.97;100.00;99981.28;5108433;28;20135;-70
2022/11/15 03:00:10;;;;;;;15.77;10.15;;;;;;;8.93;100.00;99980.56;5102905;28;20062;-71
2022/11/15 03:03:09;;;;;;;14.88;11.30;;;;;;;8.82;100.00;99974.91;5107883;28;20047;-70
2022/11/15 03:06:09;;;;;;;14.10;10.35;;;;;;;8.76;100.00;99973.44;5106481;28;20043;-70
2022/11/15 03:08:48;;;;;;;17.50;10.60;;;;;;;8.63;100.00;99969.63;5109435;28;20049;-72
2022/11/15 03:11:20;;;;;;;14.98;11.20;;;;;;;8.49;100.00;99958.88;5105219;28;20039;-70
2022/11/15 03:14:18;;;;;;;14.88;11.43;;;;;;;8.26;100.00;99944.00;5105281;28;20460;-70
2022/11/15 03:16:55;;;;;;;14.55;11.40;;;;;;;8.31;100.00;99968.41;5106252;28;20142;-70
2022/11/15 03:19:40;;;;;;;15.80;11.75;;;;;;;8.21;100.00;99982.06;5103964;28;20048;-70
2022/11/15 03:22:11;;;;;;;14.45;10.95;;;;;;;8.12;100.00;99974.56;5106776;28;20040;-70
2022/11/15 03:24:39;;;;;;;19.63;11.73;;;;;;;8.06;100.00;99968.63;5110016;28;20185;-70
2022/11/15 03:27:09;;;;;;;19.20;11.80;;;;;;;8.01;100.00;99965.34;5104986;28;20123;-70
2022/11/15 03:29:41;;;;;;;15.05;11.07;;;;;;;8.03;100.00;99974.03;5101462;28;20142;-70
2022/11/15 03:32:27;;;;;;;16.08;11.68;;;;;;;7.98;100.00;99969.88;5104444;28;20138;-69
2022/11/15 03:35:01;;;;;;;16.88;12.35;;;;;;;7.99;100.00;99983.00;5107665;28;20127;-70
2022/11/15 03:38:12;;;;;;;17.27;12.30;;;;;;;7.97;100.00;99976.09;5106771;28;20039;-70
2022/11/15 03:40:47;;;;;;;16.92;11.55;;;;;;;7.81;100.00;99948.66;5100369;28;20177;-68
2022/11/15 03:43:33;;;;;;;17.35;11.57;;;;;;;8.01;100.00;99973.25;5107238;28;20047;-70
2022/11/15 03:46:10;;;;;;;17.00;11.68;;;;;;;8.02;100.00;99971.47;5108007;28;20063;-69
2022/11/15 03:48:43;;;;;;;16.30;11.88;;;;;;;7.99;100.00;99969.81;5106432;28;20113;-68
2022/11/15 03:51:10;;;;;;;17.08;11.70;;;;;;;8.02;100.00;99967.06;5104647;28;20047;-71
2022/11/15 03:53:37;;;;;;;16.27;11.32;;;;;;;8.08;100.00;99968.56;5108603;28;20048;-71
2022/11/15 03:56:03;;;;;;;17.42;12.70;;;;;;;8.11;100.00;99965.78;5106392;28;20036;-70
2022/11/15 03:58:30;;;;;;;16.35;11.75;;;;;;;8.13;100.00;99965.72;5105304;28;20046;-71
2022/11/15 04:00:57;;;;;;;16.48;11.57;;;;;;;8.19;100.00;99962.81;5101140;28;20039;-70
2022/11/15 04:03:23;;;;;;;18.13;11.90;;;;;;;8.24;100.00;99966.97;5104590;28;20047;-73
2022/11/15 04:05:50;;;;;;;16.92;12.02;;;;;;;8.27;100.00;99980.03;5100070;28;20066;-70
2022/11/15 04:08:16;;;;;;;15.95;11.27;;;;;;;8.29;100.00;99967.63;5104062;28;20503;-71
2022/11/15 04:10:43;;;;;;;16.70;12.07;;;;;;;8.32;100.00;99970.16;5103292;28;20077;-71
2022/11/15 04:13:09;;;;;;;13.50;10.23;;;;;;;8.40;100.00;99977.72;5103662;28;20047;-70
2022/11/15 04:15:36;;;;;;;16.73;11.43;;;;;;;8.43;100.00;99978.44;5109602;28;20052;-72
2022/11/15 04:18:02;;;;;;;15.52;10.63;;;;;;;8.33;100.00;99949.91;5105282;28;20555;-71
2022/11/15 04:26:11;;;;;;;15.60;10.35;;;;;;;8.58;100.00;99966.34;5104384;28;20060;-72
2022/11/15 04:29:33;;;;;;;15.05;10.80;;;;;;;8.44;100.00;99943.22;5104286;28;20074;-71
2022/11/15 04:31:24;;;;;;;13.73;10.05;;;;;;;8.63;100.00;99969.63;5104461;28;20127;-70
2022/11/15 04:33:51;;;;;;;15.20;10.57;;;;;;;8.61;100.00;99955.66;5105178;28;20131;-70
2022/11/15 04:39:03;;;;;;;15.57;9.75;;;;;;;8.71;100.00;99954.28;5103761;28;20048;-69
2022/11/15 04:41:29;;;;;;;12.63;9.30;;;;;;;8.75;100.00;99952.38;5103349;28;20043;-70
2022/11/15 04:43:56;;;;;;;12.40;9.23;;;;;;;8.75;100.00;99937.41;5106581;28;20047;-71
2022/11/15 04:46:24;;;;;;;14.02;9.18;;;;;;;8.78;100.00;99946.97;5107472;28;20179;-70
2022/11/15 04:48:51;;;;;;;15.38;10.10;;;;;;;8.63;100.00;99922.13;5108389;28;20079;-70
2022/11/15 04:51:24;;;;;;;13.70;9.65;;;;;;;8.77;100.00;99939.97;5102944;28;20621;-69
2022/11/15 04:53:50;;;;;;;13.77;8.23;;;;;;;8.78;100.00;99934.63;5106133;28;20452;-70
2022/11/15 04:56:17;;;;;;;13.73;9.30;;;;;;;8.81;100.00;99938.91;5104561;28;20044;-72
2022/11/15 04:58:43;;;;;;;13.90;9.70;;;;;;;8.83;100.00;99939.66;5103185;28;20134;-71
2022/11/15 05:01:14;;;;;;;14.45;9.65;;;;;;;8.84;100.00;99933.44;5102654;28;20044;-71
2022/11/15 05:06:27;;;;;;;10.70;8.18;;;;;;;8.73;100.00;99918.13;5104302;28;20058;-69
2022/11/15 05:08:54;;;;;;;12.40;8.80;;;;;;;8.71;100.00;99916.47;5101442;28;20473;-70
2022/11/15 05:11:21;;;;;;;12.13;8.73;;;;;;;8.86;100.00;99936.03;5103863;28;20047;-71
2022/11/15 05:13:48;;;;;;;14.68;8.45;;;;;;;8.84;100.00;99928.16;5103369;28;20043;-71
2022/11/15 05:16:15;;;;;;;12.25;8.98;;;;;;;8.89;100.00;99928.81;5107438;28;20058;-68
2022/11/15 05:18:41;;;;;;;13.45;8.95;;;;;;;8.91;100.00;99919.03;5101376;28;20043;-68
2022/11/15 05:21:12;;;;;;;14.88;9.65;;;;;;;8.93;100.00;99921.63;5103945;28;20048;-72
2022/11/15 05:23:39;;;;;;;14.98;9.10;;;;;;;8.92;100.00;99920.75;5098812;28;20143;-71
2022/11/15 05:26:07;;;;;;;10.57;9.20;;;;;;;8.97;100.00;99915.25;5101887;28;20097;-70
2022/11/15 05:28:36;;;;;;;13.15;9.13;;;;;;;8.85;100.00;99898.19;5105425;28;20048;-71
2022/11/15 05:31:14;;;;;;;11.95;8.43;;;;;;;9.03;100.00;99914.94;5100731;28;20040;-71
2022/11/15 05:33:42;;;;;;;13.65;8.57;;;;;;;9.03;100.00;99914.94;5103065;28;20043;-71
2022/11/15 05:36:33;;;;;;;10.95;8.20;;;;;;;8.95;100.00;99896.00;5103738;28;20058;-71
2022/11/15 05:39:00;;;;;;;12.82;8.48;;;;;;;8.99;100.00;99897.53;5102235;28;20135;-70
2022/11/15 05:41:33;;;;;;;13.43;8.20;;;;;;;9.10;100.00;99917.25;5100482;28;20071;-71
2022/11/15 05:44:01;;;;;;;11.15;8.32;;;;;;;9.11;100.00;99910.16;5105975;28;20053;-72
2022/11/15 05:46:28;;;;;;;12.77;8.50;;;;;;;8.98;100.00;99890.53;5109754;28;20456;-71
2022/11/15 05:48:56;;;;;;;11.20;7.90;;;;;;;9.12;100.00;99914.53;5108821;28;20126;-70
2022/11/15 05:51:23;;;;;;;10.75;8.05;;;;;;;9.09;100.00;99901.47;5105267;28;20067;-70
2022/11/15 05:53:52;;;;;;;11.75;7.75;;;;;;;9.03;100.00;99883.25;5107819;28;20044;-71
2022/11/15 05:56:19;;;;;;;11.02;7.90;;;;;;;9.03;100.00;99880.63;5108239;27;20048;-71
2022/11/15 05:58:45;;;;;;;10.93;7.95;;;;;;;9.12;100.00;99899.53;5108844;28;20058;-70
2022/11/15 06:01:12;;;;;;;11.05;7.68;;;;;;;9.11;100.00;99892.53;5104661;28;20044;-71
2022/11/15 06:03:38;;;;;;;10.48;7.60;;;;;;;9.15;100.00;99907.28;5107442;28;20326;-71
2022/11/15 06:06:05;;;;;;;11.15;7.88;;;;;;;9.15;100.00;99899.34;5110164;28;20036;-72
2022/11/15 06:08:32;;;;;;;16.73;8.40;;;;;;;9.05;100.00;99884.91;5109230;28;20203;-71
2022/11/15 06:11:05;;;;;;;11.80;8.07;;;;;;;9.03;100.00;99878.84;5103269;28;20048;-70
2022/11/15 06:13:33;;;;;;;11.95;7.57;;;;;;;9.19;100.00;99909.78;5107316;28;20040;-70
2022/11/15 06:16:00;;;;;;;11.65;8.10;;;;;;;9.14;100.00;99907.34;5111697;28;20055;-70
2022/11/15 06:18:27;;;;;;;11.70;7.60;;;;;;;9.04;100.00;99892.91;5109358;28;20047;-70
2022/11/15 06:20:53;;;;;;;11.32;8.50;;;;;;;9.05;100.00;99886.69;5104516;28;20493;-70
2022/11/15 06:23:20;;;;;;;17.55;8.75;;;;;;;9.21;100.00;99903.50;5110071;28;20405;-71
2022/11/15 06:25:46;;;;;;;13.43;8.32;;;;;;;9.24;100.00;99905.13;5107805;28;20067;-70
2022/11/15 06:28:13;;;;;;;12.60;7.88;;;;;;;9.25;100.00;99910.34;5106319;28;20044;-71
2022/11/15 06:30:39;;;;;;;15.00;9.43;;;;;;;9.25;100.00;99910.34;5103561;28;20049;-70
2022/11/15 06:33:06;;;;;;;11.00;8.25;;;;;;;9.08;100.00;99889.19;5108489;28;20040;-71
2022/11/15 06:35:34;;;;;;;13.45;8.55;;;;;;;9.14;100.00;99899.44;5109762;28;20417;-71
2022/11/15 06:38:07;;;;;;;15.05;9.02;;;;;;;9.22;100.00;99915.78;5106200;28;20071;-71
2022/11/15 06:40:35;;;;;;;16.27;9.90;;;;;;;9.10;100.00;99896.09;5101957;28;20133;-73
2022/11/15 06:43:03;;;;;;;15.15;10.35;;;;;;;9.10;100.00;99905.81;5108912;28;20590;-70
2022/11/15 06:45:30;;;;;;;15.98;10.65;;;;;;;9.20;100.00;99924.69;5108350;28;20052;-70
2022/11/15 06:47:58;;;;;;;14.52;10.52;;;;;;;9.18;100.00;99919.50;5109543;28;20097;-71
2022/11/15 06:50:24;;;;;;;15.65;10.45;;;;;;;9.06;100.00;99901.59;5104646;27;20047;-71
2022/11/15 06:52:51;;;;;;;17.33;10.15;;;;;;;9.21;100.00;99908.78;5108380;28;20048;-71
2022/11/15 06:55:18;;;;;;;19.58;10.88;;;;;;;9.26;100.00;99906.78;5105846;28;20054;-70
2022/11/15 06:57:48;;;;;;;13.38;9.68;;;;;;;9.26;100.00;99914.69;5104686;28;20052;-71
2022/11/15 07:00:16;;;;;;;17.73;10.05;;;;;;;9.11;100.00;99896.97;5103079;28;20343;-70
2022/11/15 07:02:43;;;;;;;15.32;9.77;;;;;;;9.26;100.00;99921.78;5103073;28;20075;-69
2022/11/15 07:05:11;;;;;;;17.10;9.80;;;;;;;9.26;100.00;99922.63;5106469;28;20048;-70
2022/11/15 07:07:37;;;;;;;16.25;9.63;;;;;;;9.26;100.00;99919.13;5109103;28;20058;-71
2022/11/15 07:10:05;;;;;;;14.73;9.85;;;;;;;9.27;100.00;99924.34;5103830;28;20052;-70
2022/11/15 07:12:32;;;;;;;14.73;9.45;;;;;;;9.29;100.00;99927.75;5106281;28;20093;-71
2022/11/15 07:14:58;;;;;;;15.93;9.90;;;;;;;9.30;100.00;99923.31;5103902;28;20491;-71
2022/11/15 07:17:25;;;;;;;16.92;9.75;;;;;;;9.31;100.00;99928.53;5104145;28;20127;-71
2022/11/15 07:19:51;;;;;;;17.33;9.77;;;;;;;9.33;100.00;99929.31;5105100;28;20062;-69
2022/11/15 07:22:18;;;;;;;15.20;9.88;;;;;;;9.40;100.00;99925.44;5106624;28;20070;-70
2022/11/15 07:24:44;;;;;;;16.42;10.82;;;;;;;9.53;100.00;99932.75;5103835;28;20141;-71
2022/11/15 07:27:11;;;;;;;14.57;10.05;;;;;;;9.69;100.00;99918.69;5109126;28;20788;-73
2022/11/15 07:29:38;;;;;;;15.27;10.55;;;;;;;9.91;100.00;99917.59;5103082;28;20435;-71
2022/11/15 07:32:04;;;;;;;17.75;11.20;;;;;;;10.07;100.00;99915.88;5116831;27;20122;-70
2022/11/15 07:34:31;;;;;;;16.65;10.10;;;;;;;10.30;100.00;99918.16;5105136;28;20045;-71
2022/11/15 07:36:57;;;;;;;16.08;10.27;;;;;;;10.29;100.00;99892.63;5105375;28;20040;-70
2022/11/15 07:39:24;;;;;;;17.05;10.55;;;;;;;10.49;100.00;99918.91;5102453;28;20147;-71
2022/11/15 07:42:52;;;;;;;15.65;10.65;;;;;;;10.56;100.00;99916.75;5098917;28;20039;-72
2022/11/15 07:44:37;;;;;;;21.67;10.60;;;;;;;10.60;100.00;99902.41;5105014;28;20052;-72
2022/11/15 07:47:03;;;;;;;18.20;10.27;;;;;;;10.69;100.00;99909.88;5100568;28;20485;-71
2022/11/15 07:49:30;;;;;;;15.25;9.57;;;;;;;10.71;100.00;99909.75;5101745;28;20396;-70
2022/11/15 07:51:56;;;;;;;18.42;10.60;;;;;;;10.73;100.00;99911.38;5095755;28;20055;-73
2022/11/15 07:54:23;;;;;;;13.35;8.77;;;;;;;10.76;100.00;99907.72;5096881;27;20480;-73
2022/11/15 07:56:49;;;;;;;16.90;9.68;;;;;;;10.78;100.00;99906.72;5096091;28;20039;-72
2022/11/15 07:59:16;;;;;;;14.43;9.05;;;;;;;10.83;100.00;99904.66;5101642;28;20055;-72
2022/11/15 08:01:42;;;;;;;15.32;9.02;;;;;;;10.88;100.00;99909.69;5098451;28;20678;-70
2022/11/15 08:04:10;;;;;;;13.55;8.88;;;;;;;10.91;100.00;99914.81;5101580;28;20051;-71
2022/11/15 08:06:37;;;;;;;14.63;9.35;;;;;;;10.98;100.00;99924.16;5099837;28;20055;-69
2022/11/15 08:09:04;;;;;;;14.18;8.98;;;;;;;11.01;100.00;99920.47;5097542;28;20047;-71
2022/11/15 08:11:30;;;;;;;15.75;8.80;;;;;;;10.96;100.00;99899.53;5094278;28;20050;-71
2022/11/15 08:13:57;;;;;;;17.57;8.57;;;;;;;11.10;100.00;99920.78;5098838;28;20044;-70
2022/11/15 08:16:23;;;;;;;12.43;9.00;;;;;;;11.16;100.00;99922.25;5101783;28;20059;-71
2022/11/15 08:18:50;;;;;;;15.63;7.65;;;;;;;11.25;100.00;99921.72;5103473;28;20559;-71
2022/11/15 08:21:20;;;;;;;16.75;9.00;;;;;;;11.32;100.00;99916.94;5100444;28;20058;-71
2022/11/15 08:23:47;;;;;;;12.25;8.32;;;;;;;11.36;100.00;99921.94;5096716;28;20154;-70
2022/11/15 08:26:14;;;;;;;15.63;8.52;;;;;;;11.37;100.00;99920.16;5099150;28;20449;-70
2022/11/15 08:28:41;;;;;;;13.48;9.13;;;;;;;11.21;100.00;99901.63;5102077;28;20051;-68
2022/11/15 08:31:14;;;;;;;17.98;9.48;;;;;;;11.25;100.00;99919.06;5095709;28;20126;-68
2022/11/15 08:33:40;;;;;;;11.88;8.95;;;;;;;11.24;100.00;99917.34;5099857;28;20050;-71
2022/11/15 08:36:13;;;;;;;15.30;9.55;;;;;;;11.21;100.00;99922.81;5105745;28;20146;-70
2022/11/15 08:38:40;;;;;;;12.55;9.23;;;;;;;11.21;100.00;99920.19;5106487;27;20558;-72
2022/11/15 08:41:12;;;;;;;14.00;10.02;;;;;;;11.08;100.00;99893.53;5092299;28;20059;-70
2022/11/15 08:43:39;;;;;;;14.05;9.35;;;;;;;11.28;100.00;99910.09;5103090;28;20047;-69
2022/11/15 08:46:07;;;;;;;16.25;9.75;;;;;;;11.30;100.00;99911.72;5095788;28;20163;-72
2022/11/15 08:48:34;;;;;;;14.18;8.63;;;;;;;11.35;100.00;99909.63;5099483;28;20050;-72
2022/11/15 08:51:01;;;;;;;13.60;9.43;;;;;;;11.38;100.00;99914.75;5096157;28;20729;-72
2022/11/15 08:53:27;;;;;;;19.02;9.77;;;;;;;11.34;100.00;99907.91;5099471;28;20044;-70
2022/11/15 08:55:54;;;;;;;16.58;10.43;;;;;;;11.29;100.00;99910.00;5098372;28;20043;-71
2022/11/15 08:58:20;;;;;;;13.40;9.52;;;;;;;11.20;100.00;99899.91;5099775;28;20055;-72
2022/11/15 09:00:47;;;;;;;19.73;9.60;;;;;;;11.10;100.00;99889.00;5097234;28;20509;-69
2022/11/15 09:03:14;;;;;;;12.43;8.82;;;;;;;11.24;100.00;99901.44;5102561;28;20043;-70
2022/11/15 09:05:40;;;;;;;18.95;11.30;;;;;;;11.27;100.00;99905.72;5100841;28;20054;-70
2022/11/15 09:08:07;;;;;;;14.52;10.18;;;;;;;11.33;100.00;99908.91;5098341;28;20054;-71
2022/11/15 09:10:54;;;;;;;16.85;10.13;;;;;;;11.37;100.00;99915.69;5099700;28;20047;-73
2022/11/15 09:13:20;;;;;;;17.10;10.50;;;;;;;11.25;100.00;99895.22;5102844;28;20100;-71
2022/11/15 09:15:47;;;;;;;14.88;9.80;;;;;;;11.35;100.00;99901.69;5095829;28;20117;-71
2022/11/15 09:18:13;;;;;;;17.02;9.75;;;;;;;11.37;100.00;99905.09;5104404;28;20048;-73
2022/11/15 09:20:40;;;;;;;14.57;9.77;;;;;;;11.43;100.00;99904.75;5099884;28;20593;-71
2022/11/15 09:23:07;;;;;;;16.48;10.25;;;;;;;11.53;100.00;99905.06;5101111;28;20043;-70
2022/11/15 09:25:33;;;;;;;16.58;10.60;;;;;;;11.49;100.00;99907.03;5096731;28;20050;-72
2022/11/15 09:28:00;;;;;;;15.55;9.43;;;;;;;11.47;100.00;99905.44;5102660;28;20058;-73
2022/11/15 09:30:26;;;;;;;15.95;10.35;;;;;;;11.48;100.00;99900.06;5097988;28;20354;-73
2022/11/15 09:32:53;;;;;;;15.23;9.32;;;;;;;11.54;100.00;99899.66;5098105;28;20055;-72
2022/11/15 09:35:19;;;;;;;14.60;9.32;;;;;;;11.44;100.00;99879.97;5095504;28;20044;-71
2022/11/15 09:37:46;;;;;;;15.43;10.30;;;;;;;11.52;100.00;99900.69;5103245;28;20101;-72
2022/11/15 09:40:20;;;;;;;13.35;10.10;;;;;;;11.56;100.00;99902.22;5096368;28;20062;-72
2022/11/15 09:43:18;;;;;;;13.80;10.23;;;;;;;11.59;100.00;99900.25;5096982;28;20074;-72
2022/11/15 09:46:06;;;;;;;16.80;10.35;;;;;;;11.63;100.00;99893.00;5098875;28;20147;-74
2022/11/15 09:48:35;;;;;;;15.10;10.02;;;;;;;11.65;100.00;99888.41;5101154;28;20058;-72
2022/11/15 09:51:04;;;;;;;13.27;9.65;;;;;;;11.72;100.00;99896.88;5098997;28;20052;-71
2022/11/15 09:53:42;;;;;;;17.25;9.90;;;;;;;11.89;100.00;99888.81;5102619;28;20054;-71
2022/11/15 09:56:31;;;;;;;16.65;10.23;;;;;;;12.11;100.00;99885.72;5098122;28;20066;-72
2022/11/15 09:59:26;;;;;;;14.73;9.68;;;;;;;12.37;100.00;99884.09;5103065;28;20514;-71
2022/11/15 10:02:12;;;;;;;12.45;9.15;;;;;;;12.63;100.00;99880.63;5096266;28;20051;-72
2022/11/15 10:04:40;;;;;;;14.75;8.45;;;;;;;12.92;100.00;99868.97;5103567;28;20453;-73
2022/11/15 10:08:00;;;;;;;15.00;9.63;;;;;;;13.36;100.00;99862.59;5101731;28;20040;-73
2022/11/15 10:10:41;;;;;;;12.55;6.30;;;;;;;13.57;100.00;99863.78;5038470;28;20057;-72
2022/11/15 10:13:24;;;;;;;9.18;5.75;;;;;;;13.64;100.00;99838.50;5093569;28;20052;-70
2022/11/15 10:15:53;;;;;;;9.07;6.20;;;;;;;13.88;99.88;99848.41;5097173;28;20143;-71
2022/11/15 10:18:35;;;;;;;7.07;5.72;;;;;;;13.97;98.50;99851.28;5098290;28;20475;-73
2022/11/15 10:21:25;;;;;;;10.63;6.03;;;;;;;13.99;96.77;99843.19;5098628;28;20105;-72
2022/11/15 10:23:53;;;;;;;10.10;5.57;;;;;;;14.05;96.20;99842.75;5096618;28;20054;-72
2022/11/15 10:26:20;;;;;;;7.80;5.40;;;;;;;13.97;96.22;99837.97;5095543;28;20146;-70
2022/11/15 10:28:47;;;;;;;8.48;5.63;;;;;;;14.00;97.41;99836.91;5098000;28;20051;-70
2022/11/15 10:31:28;;;;;;;7.93;5.65;;;;;;;13.92;97.84;99831.25;5092442;28;20079;-71
2022/11/15 10:34:13;;;;;;;7.72;5.57;;;;;;;13.82;99.33;99833.72;5099143;28;20134;-71
2022/11/15 10:37:01;;;;;;;6.72;5.15;;;;;;;13.78;99.40;99834.88;5100532;28;20052;-72
2022/11/15 10:39:28;;;;;;;9.32;5.65;;;;;;;13.76;100.00;99828.81;5100345;28;20060;-71
2022/11/15 10:41:55;;;;;;;9.73;5.70;;;;;;;13.70;99.96;99827.41;5099385;28;20104;-71
2022/11/15 10:44:28;;;;;;;7.75;5.82;;;;;;;13.54;100.00;99789.50;5099552;28;20052;-71
2022/11/15 10:46:54;;;;;;;8.02;5.55;;;;;;;13.74;100.00;99824.53;5091946;28;20560;-68
2022/11/15 10:49:24;;;;;;;5.97;5.35;;;;;;;13.70;99.98;99814.09;5102995;28;20039;-71
2022/11/15 10:52:16;;;;;;;11.95;5.53;;;;;;;13.70;100.00;99806.13;5102913;28;20051;-72
2022/11/15 10:54:52;;;;;;;10.52;5.80;;;;;;;13.70;100.00;99799.94;5105721;28;20043;-71
2022/11/15 10:57:21;;;;;;;8.95;5.82;;;;;;;13.84;100.00;99807.84;5102504;28;20053;-71
2022/11/15 11:00:00;;;;;;;7.55;6.53;;;;;;;13.87;100.00;99818.25;5107387;28;20052;-70
2022/11/15 11:02:37;;;;;;;9.10;6.95;;;;;;;13.89;100.00;99804.84;5103152;28;20135;-70
2022/11/15 11:05:31;;;;;;;10.20;6.60;;;;;;;13.96;100.00;99792.81;5107928;28;20052;-73
2022/11/15 11:08:21;;;;;;;9.63;7.15;;;;;;;13.81;100.00;99772.63;5102978;28;20055;-69
2022/11/15 11:10:59;;;;;;;9.80;6.90;;;;;;;13.81;100.00;99785.91;5102459;28;20048;-72
2022/11/15 11:13:32;;;;;;;9.65;7.03;;;;;;;13.69;100.00;99777.81;5104014;28;20063;-68
2022/11/15 11:16:13;;;;;;;9.65;6.90;;;;;;;13.61;100.00;99772.19;5103983;28;20053;-72
2022/11/15 11:19:01;;;;;;;8.48;6.13;;;;;;;13.41;100.00;99756.75;5103702;28;20053;-72
2022/11/15 11:21:31;;;;;;;10.82;7.03;;;;;;;13.51;100.00;99772.94;5104578;28;20051;-70
2022/11/15 11:24:25;;;;;;;10.85;6.07;;;;;;;13.55;100.00;99764.63;5105580;28;20532;-73
2022/11/15 11:27:19;;;;;;;10.05;5.70;;;;;;;13.63;100.00;99762.28;5104040;28;20146;-72
2022/11/15 11:30:13;;;;;;;12.27;5.88;;;;;;;13.67;100.00;99745.16;5103522;28;20048;-71
2022/11/15 11:33:04;;;;;;;9.55;5.60;;;;;;;13.75;100.00;99755.25;5102074;28;20492;-70
2022/11/15 11:36:18;;;;;;;11.93;6.35;;;;;;;13.73;100.00;99751.00;5101891;28;20493;-73
2022/11/15 11:39:05;;;;;;;10.73;6.30;;;;;;;13.68;100.00;99748.69;5050793;28;20060;-72
2022/11/15 11:41:35;;;;;;;10.45;6.03;;;;;;;13.66;100.00;99742.63;5042925;28;20057;-72
2022/11/15 11:44:16;;;;;;;10.90;6.28;;;;;;;13.68;100.00;99740.69;5084401;28;20058;-71
2022/11/15 11:46:54;;;;;;;8.90;5.07;;;;;;;13.67;100.00;99734.53;5101130;28;20079;-73
2022/11/15 11:49:34;;;;;;;10.95;5.72;;;;;;;13.60;100.00;99727.91;5108227;28;20120;-73